Time;durP1;ratioP1;P1;durP2;ratioP2;P2;SDS_P1;SDS_P2;PMS_P1;PMS_P2;Temp;Humidity;BMP_temperature;BMP_pressure;BME280_temperature;BME280_humidity;BME280_pressure;Samples;Min_cycle;Max_cycle;Signal;HPM_P1;HPM_P2
2022/04/06 00:02:00;;;;;;;8.80;3.95;;;;;;;;;;5072787;28;20063;-64
2022/04/06 00:04:27;;;;;;;14.00;4.68;;;;;;;;;;5072984;28;20039;-64
2022/04/06 00:06:54;;;;;;;10.98;3.90;;;;;;;;;;5073522;28;20036;-64
2022/04/06 00:09:21;;;;;;;10.32;4.25;;;;;;;;;;5070704;28;20413;-64
2022/04/06 00:11:48;;;;;;;11.07;3.90;;;;;;;;;;5067440;28;20024;-65
2022/04/06 00:14:15;;;;;;;11.20;4.90;;;;;;;;;;5066963;28;20037;-64
2022/04/06 00:16:43;;;;;;;7.35;4.00;;;;;;;;;;5067249;28;20048;-66
2022/04/06 00:19:09;;;;;;;5.75;3.90;;;;;;;;;;5067780;28;20036;-64
2022/04/06 00:21:36;;;;;;;7.20;4.18;;;;;;;;;;5072564;28;20467;-64
2022/04/06 00:24:03;;;;;;;15.50;3.95;;;;;;;;;;5072696;28;20048;-65
2022/04/06 00:26:29;;;;;;;12.52;4.00;;;;;;;;;;5072067;28;20108;-64
2022/04/06 00:28:59;;;;;;;12.07;3.72;;;;;;;;;;5087559;28;20040;-65
2022/04/06 00:31:25;;;;;;;8.38;4.13;;;;;;;;;;5081544;28;20025;-63
2022/04/06 00:33:52;;;;;;;10.63;4.30;;;;;;;;;;5066962;28;20035;-64
2022/04/06 00:36:19;;;;;;;12.35;4.05;;;;;;;;;;5066763;28;20021;-64
2022/04/06 00:38:45;;;;;;;16.50;5.28;;;;;;;;;;5068063;28;20028;-64
2022/04/06 00:41:12;;;;;;;9.90;4.75;;;;;;;;;;5086808;28;20060;-65
2022/04/06 00:43:39;;;;;;;7.82;4.50;;;;;;;;;;5092381;28;20026;-66
2022/04/06 00:46:05;;;;;;;12.63;4.18;;;;;;;;;;5092093;28;20021;-66
2022/04/06 00:48:32;;;;;;;9.43;3.83;;;;;;;;;;5080678;28;20079;-65
2022/04/06 00:50:59;;;;;;;10.77;4.55;;;;;;;;;;5072802;28;20141;-65
2022/04/06 00:53:26;;;;;;;11.80;5.28;;;;;;;;;;5091713;28;20475;-65
2022/04/06 00:55:53;;;;;;;11.57;4.55;;;;;;;;;;5086797;28;20069;-64
2022/04/06 00:58:20;;;;;;;19.75;4.80;;;;;;;;;;5086612;28;20028;-64
2022/04/06 01:00:46;;;;;;;11.05;4.93;;;;;;;;;;5086570;28;20028;-64
2022/04/06 01:03:13;;;;;;;8.50;5.00;;;;;;;;;;5085926;28;20031;-64
2022/04/06 01:05:40;;;;;;;12.38;4.40;;;;;;;;;;5091515;28;20042;-65
2022/04/06 01:08:08;;;;;;;12.38;4.00;;;;;;;;;;5091461;28;20118;-65
2022/04/06 01:10:34;;;;;;;18.58;5.75;;;;;;;;;;5075801;28;20093;-64
2022/04/06 01:13:01;;;;;;;13.63;5.55;;;;;;;;;;5086570;28;20394;-64
2022/04/06 01:15:28;;;;;;;15.95;5.53;;;;;;;;;;5092074;28;20425;-64
2022/04/06 01:17:55;;;;;;;11.63;5.40;;;;;;;;;;5086929;28;20077;-63
2022/04/06 01:20:21;;;;;;;13.50;5.03;;;;;;;;;;5086716;28;20032;-63
2022/04/06 01:22:48;;;;;;;15.65;5.40;;;;;;;;;;5086287;28;20088;-64
2022/04/06 01:25:15;;;;;;;10.32;5.45;;;;;;;;;;5085965;28;20024;-64
2022/04/06 01:27:42;;;;;;;13.93;5.38;;;;;;;;;;5089983;28;20044;-64
2022/04/06 01:30:09;;;;;;;10.65;4.85;;;;;;;;;;5091716;28;20032;-64
2022/04/06 01:32:36;;;;;;;5.70;4.80;;;;;;;;;;5088055;28;20459;-63
2022/04/06 01:35:04;;;;;;;8.20;4.68;;;;;;;;;;5071898;28;20017;-64
2022/04/06 01:37:31;;;;;;;13.23;5.10;;;;;;;;;;5076446;28;20016;-64
2022/04/06 01:39:58;;;;;;;12.13;4.93;;;;;;;;;;5087368;28;20035;-63
2022/04/06 01:42:25;;;;;;;8.43;4.53;;;;;;;;;;5077834;28;20016;-64
2022/04/06 01:44:52;;;;;;;10.87;4.27;;;;;;;;;;5070309;28;20024;-63
2022/04/06 01:47:20;;;;;;;7.80;4.70;;;;;;;;;;5071477;28;20089;-63
2022/04/06 01:52:32;;;;;;;10.20;4.83;;;;;;;;;;5094046;28;20051;-63
2022/04/06 01:55:01;;;;;;;8.40;4.63;;;;;;;;;;5075490;28;20024;-64
2022/04/06 01:57:29;;;;;;;11.17;4.70;;;;;;;;;;5075356;28;20020;-64
2022/04/06 01:59:55;;;;;;;8.93;4.50;;;;;;;;;;5075513;28;20029;-65
2022/04/06 02:02:23;;;;;;;10.80;4.67;;;;;;;;;;5071526;28;20024;-63
2022/04/06 02:04:50;;;;;;;19.27;5.23;;;;;;;;;;5090269;28;20426;-64
2022/04/06 02:07:17;;;;;;;9.60;4.33;;;;;;;;;;5090211;28;20023;-63
2022/04/06 02:09:44;;;;;;;12.47;5.30;;;;;;;;;;5087741;28;20020;-65
2022/04/06 02:12:11;;;;;;;10.63;5.23;;;;;;;;;;5087137;28;20032;-64
2022/04/06 02:14:39;;;;;;;13.90;5.20;;;;;;;;;;5089869;28;20031;-64
2022/04/06 02:17:07;;;;;;;13.77;4.93;;;;;;;;;;5095505;28;20368;-64
2022/04/06 02:19:36;;;;;;;7.57;4.60;;;;;;;;;;5094929;28;20503;-63
2022/04/06 02:22:04;;;;;;;12.27;5.33;;;;;;;;;;5095291;28;20367;-63
2022/04/06 02:24:31;;;;;;;12.17;4.80;;;;;;;;;;5091356;28;20188;-63
2022/04/06 02:26:58;;;;;;;10.50;4.77;;;;;;;;;;5078621;28;20020;-63
2022/04/06 02:29:25;;;;;;;14.03;5.07;;;;;;;;;;5069561;28;20025;-63
2022/04/06 02:31:52;;;;;;;11.67;4.80;;;;;;;;;;5069559;28;21306;-63
2022/04/06 02:34:23;;;;;;;8.87;4.90;;;;;;;;;;5072066;28;20029;-64
2022/04/06 02:36:50;;;;;;;11.57;5.17;;;;;;;;;;5091054;28;20114;-63
2022/04/06 02:39:17;;;;;;;14.33;5.50;;;;;;;;;;5094654;28;20016;-64
2022/04/06 02:41:43;;;;;;;14.47;4.50;;;;;;;;;;5086815;28;20063;-63
2022/04/06 02:44:10;;;;;;;12.03;5.37;;;;;;;;;;5083496;28;20016;-63
2022/04/06 02:46:37;;;;;;;9.07;4.50;;;;;;;;;;5077366;28;20031;-63
2022/04/06 02:49:04;;;;;;;6.97;4.30;;;;;;;;;;5089276;28;20028;-63
2022/04/06 02:51:31;;;;;;;10.90;4.63;;;;;;;;;;5088563;28;20028;-64
2022/04/06 02:53:58;;;;;;;13.07;4.80;;;;;;;;;;5088907;28;20036;-63
2022/04/06 02:56:25;;;;;;;11.33;4.27;;;;;;;;;;5085936;28;20024;-63
2022/04/06 02:58:52;;;;;;;12.33;4.80;;;;;;;;;;5074519;28;20029;-64
2022/04/06 03:01:18;;;;;;;11.40;4.63;;;;;;;;;;5073881;28;20507;-63
2022/04/06 03:03:45;;;;;;;12.23;4.70;;;;;;;;;;5074102;28;20111;-66
2022/04/06 03:06:12;;;;;;;7.47;4.60;;;;;;;;;;5054330;28;20078;-63
2022/04/06 03:08:38;;;;;;;9.67;5.07;;;;;;;;;;5059191;28;20032;-64
2022/04/06 03:11:05;;;;;;;7.97;4.30;;;;;;;;;;5068730;28;20130;-63
2022/04/06 03:13:32;;;;;;;10.20;4.87;;;;;;;;;;5068491;28;20043;-63
2022/04/06 03:15:59;;;;;;;7.93;4.53;;;;;;;;;;5075177;28;20031;-64
2022/04/06 03:18:25;;;;;;;11.57;4.57;;;;;;;;;;5069634;28;20379;-64
2022/04/06 03:20:52;;;;;;;12.70;4.23;;;;;;;;;;5074002;28;20383;-64
2022/04/06 03:23:19;;;;;;;12.87;5.20;;;;;;;;;;5073914;28;20028;-63
2022/04/06 03:25:46;;;;;;;13.03;4.50;;;;;;;;;;5073780;28;20475;-64
2022/04/06 03:28:12;;;;;;;9.07;4.57;;;;;;;;;;5074108;28;20371;-63
2022/04/06 03:30:40;;;;;;;8.87;4.97;;;;;;;;;;5072221;28;20028;-63
2022/04/06 03:33:09;;;;;;;7.90;4.43;;;;;;;;;;5049752;28;20048;-63
2022/04/06 03:35:38;;;;;;;7.07;4.20;;;;;;;;;;5067958;28;20025;-63
2022/04/06 03:38:05;;;;;;;13.03;4.73;;;;;;;;;;5079777;28;20107;-64
2022/04/06 03:40:32;;;;;;;9.67;4.70;;;;;;;;;;5073878;28;20064;-64
2022/04/06 03:42:59;;;;;;;8.33;4.57;;;;;;;;;;5076689;28;20107;-63
2022/04/06 03:45:25;;;;;;;9.20;4.40;;;;;;;;;;5093334;28;20371;-63
2022/04/06 03:47:52;;;;;;;10.97;4.87;;;;;;;;;;5079166;28;20029;-63
2022/04/06 03:50:19;;;;;;;10.10;4.87;;;;;;;;;;5073293;28;20056;-64
2022/04/06 03:52:45;;;;;;;11.07;4.97;;;;;;;;;;5071824;28;20479;-62
2022/04/06 03:55:12;;;;;;;8.63;4.17;;;;;;;;;;5068057;28;20119;-63
2022/04/06 03:57:39;;;;;;;12.40;4.60;;;;;;;;;;5068110;28;20032;-63
2022/04/06 04:00:08;;;;;;;8.30;4.10;;;;;;;;;;5067873;28;20025;-63
2022/04/06 04:02:34;;;;;;;9.17;4.27;;;;;;;;;;5068671;28;20538;-63
2022/04/06 04:05:03;;;;;;;8.53;4.40;;;;;;;;;;5090611;28;20483;-63
2022/04/06 04:07:31;;;;;;;9.23;4.73;;;;;;;;;;5093078;28;20024;-64
2022/04/06 04:09:58;;;;;;;6.97;4.50;;;;;;;;;;5092753;28;20020;-63
2022/04/06 04:12:25;;;;;;;9.47;4.53;;;;;;;;;;5093207;28;20028;-62
2022/04/06 04:14:52;;;;;;;12.33;4.93;;;;;;;;;;5092641;28;20426;-63
2022/04/06 04:17:18;;;;;;;12.20;4.20;;;;;;;;;;5077658;28;20093;-64
2022/04/06 04:19:45;;;;;;;6.97;4.00;;;;;;;;;;5067716;28;20039;-63
2022/04/06 04:22:12;;;;;;;7.70;4.40;;;;;;;;;;5067727;28;20078;-63
2022/04/06 04:24:39;;;;;;;7.63;4.60;;;;;;;;;;5080622;28;20028;-63
2022/04/06 04:27:05;;;;;;;7.90;4.10;;;;;;;;;;5092024;28;20041;-63
2022/04/06 04:29:32;;;;;;;15.53;5.03;;;;;;;;;;5092743;28;20035;-63
2022/04/06 04:31:59;;;;;;;11.17;4.30;;;;;;;;;;5093132;28;20024;-63
2022/04/06 04:34:26;;;;;;;9.37;4.03;;;;;;;;;;5090644;28;20071;-63
2022/04/06 04:36:53;;;;;;;6.63;4.13;;;;;;;;;;5089360;28;20132;-63
2022/04/06 04:39:20;;;;;;;9.53;4.40;;;;;;;;;;5080177;28;20103;-63
2022/04/06 04:41:47;;;;;;;11.20;4.37;;;;;;;;;;5081475;28;20024;-63
2022/04/06 04:44:14;;;;;;;11.37;4.30;;;;;;;;;;5080457;28;20511;-63
2022/04/06 04:46:41;;;;;;;11.10;3.97;;;;;;;;;;5073740;28;20035;-64
2022/04/06 04:49:07;;;;;;;7.80;4.20;;;;;;;;;;5077183;28;20082;-63
2022/04/06 04:51:34;;;;;;;7.97;4.40;;;;;;;;;;5088622;28;20036;-63
2022/04/06 04:54:01;;;;;;;10.87;4.33;;;;;;;;;;5075833;28;20036;-63
2022/04/06 04:56:30;;;;;;;7.50;4.37;;;;;;;;;;5063728;28;20104;-66
2022/04/06 04:58:57;;;;;;;8.10;4.13;;;;;;;;;;5067675;28;20499;-66
2022/04/06 05:01:24;;;;;;;8.13;3.90;;;;;;;;;;5067527;28;20012;-63
2022/04/06 05:03:51;;;;;;;6.67;3.77;;;;;;;;;;5064016;28;20027;-61
2022/04/06 05:06:18;;;;;;;6.43;3.67;;;;;;;;;;5047127;28;20040;-62
2022/04/06 05:08:45;;;;;;;9.20;4.17;;;;;;;;;;5055667;28;20071;-63
2022/04/06 05:11:11;;;;;;;9.23;3.33;;;;;;;;;;5069435;28;20020;-62
2022/04/06 05:13:38;;;;;;;11.70;4.00;;;;;;;;;;5070130;28;20037;-63
2022/04/06 05:16:05;;;;;;;9.30;5.13;;;;;;;;;;5075598;28;20020;-64
2022/04/06 05:18:32;;;;;;;10.13;3.97;;;;;;;;;;5090153;28;20012;-62
2022/04/06 05:20:58;;;;;;;8.37;3.50;;;;;;;;;;5087825;28;20064;-62
2022/04/06 05:23:25;;;;;;;13.30;3.63;;;;;;;;;;5073402;28;20031;-62
2022/04/06 05:25:52;;;;;;;9.07;4.00;;;;;;;;;;5072130;28;20020;-63
2022/04/06 05:28:18;;;;;;;9.60;4.00;;;;;;;;;;5090284;28;20474;-63
2022/04/06 05:30:46;;;;;;;11.27;4.23;;;;;;;;;;5093395;28;20085;-63
2022/04/06 05:33:13;;;;;;;10.07;4.60;;;;;;;;;;5096752;28;20036;-63
2022/04/06 05:35:40;;;;;;;11.63;3.87;;;;;;;;;;5098487;28;20099;-62
2022/04/06 05:38:06;;;;;;;6.40;3.47;;;;;;;;;;5081056;28;20435;-63
2022/04/06 05:40:33;;;;;;;9.13;3.10;;;;;;;;;;5078683;28;20100;-63
2022/04/06 05:43:00;;;;;;;6.37;4.63;;;;;;;;;;5078553;28;20016;-63
2022/04/06 05:45:26;;;;;;;6.77;4.17;;;;;;;;;;5075321;28;20382;-63
2022/04/06 05:47:53;;;;;;;7.83;3.53;;;;;;;;;;5074233;28;20074;-62
2022/04/06 05:50:20;;;;;;;8.13;3.57;;;;;;;;;;5092394;28;20024;-64
2022/04/06 05:52:48;;;;;;;9.87;3.40;;;;;;;;;;5093014;28;20044;-63
2022/04/06 05:55:15;;;;;;;12.67;3.40;;;;;;;;;;5095000;28;20123;-63
2022/04/06 05:57:42;;;;;;;7.23;3.70;;;;;;;;;;5098862;28;20733;-63
2022/04/06 06:00:09;;;;;;;9.73;4.57;;;;;;;;;;5098222;28;20055;-63
2022/04/06 06:02:36;;;;;;;6.30;3.93;;;;;;;;;;5098117;28;20020;-63
2022/04/06 06:05:03;;;;;;;8.63;3.33;;;;;;;;;;5091507;28;20024;-63
2022/04/06 06:07:30;;;;;;;6.60;4.10;;;;;;;;;;5075603;28;20039;-62
2022/04/06 06:09:57;;;;;;;11.50;4.27;;;;;;;;;;5090719;28;20486;-63
2022/04/06 06:12:24;;;;;;;11.63;3.80;;;;;;;;;;5092785;28;20074;-63
2022/04/06 06:14:51;;;;;;;10.57;3.73;;;;;;;;;;5092907;28;20039;-63
2022/04/06 06:17:17;;;;;;;8.53;4.20;;;;;;;;;;5094168;28;20028;-63
2022/04/06 06:19:44;;;;;;;6.67;3.97;;;;;;;;;;5077933;28;20036;-63
2022/04/06 06:22:11;;;;;;;6.63;3.87;;;;;;;;;;5078190;28;20064;-63
2022/04/06 06:24:37;;;;;;;6.90;3.90;;;;;;;;;;5078085;28;20028;-63
2022/04/06 06:27:04;;;;;;;9.13;3.87;;;;;;;;;;5075445;28;20484;-62
2022/04/06 06:29:31;;;;;;;6.43;3.73;;;;;;;;;;5072692;28;20033;-62
2022/04/06 06:31:58;;;;;;;9.43;4.20;;;;;;;;;;5085168;28;20032;-63
2022/04/06 06:34:25;;;;;;;9.03;3.90;;;;;;;;;;5089538;28;20029;-63
2022/04/06 06:36:51;;;;;;;12.27;5.33;;;;;;;;;;5089747;28;20016;-63
2022/04/06 06:39:18;;;;;;;9.47;4.27;;;;;;;;;;5081939;28;20021;-63
2022/04/06 06:41:46;;;;;;;7.40;3.70;;;;;;;;;;5074625;28;20372;-62
2022/04/06 06:44:13;;;;;;;7.70;3.70;;;;;;;;;;5075675;28;20029;-62
2022/04/06 06:46:40;;;;;;;5.77;3.70;;;;;;;;;;5090069;28;20407;-63
2022/04/06 06:49:07;;;;;;;7.60;3.80;;;;;;;;;;5093884;28;20052;-62
2022/04/06 06:51:33;;;;;;;10.00;4.13;;;;;;;;;;5072864;28;20032;-62
2022/04/06 06:54:00;;;;;;;9.50;3.70;;;;;;;;;;5069009;28;20480;-62
2022/04/06 06:56:27;;;;;;;6.23;3.90;;;;;;;;;;5085598;28;20078;-63
2022/04/06 06:58:54;;;;;;;7.77;4.10;;;;;;;;;;5075647;28;20123;-62
2022/04/06 07:01:21;;;;;;;8.37;4.17;;;;;;;;;;5069419;28;20033;-62
2022/04/06 07:03:47;;;;;;;8.20;3.30;;;;;;;;;;5073847;28;20114;-62
2022/04/06 07:06:14;;;;;;;9.07;3.67;;;;;;;;;;5074191;28;20028;-62
2022/04/06 07:08:41;;;;;;;7.63;3.60;;;;;;;;;;5078669;28;20028;-62
2022/04/06 07:11:08;;;;;;;7.57;3.80;;;;;;;;;;5086068;28;20021;-63
2022/04/06 07:13:35;;;;;;;6.10;3.67;;;;;;;;;;5073013;28;20046;-62
2022/04/06 07:16:02;;;;;;;9.27;4.53;;;;;;;;;;5068977;28;20028;-62
2022/04/06 07:18:29;;;;;;;7.27;3.80;;;;;;;;;;5078612;28;20111;-62
2022/04/06 07:20:56;;;;;;;7.93;4.37;;;;;;;;;;5088369;28;20478;-62
2022/04/06 07:23:23;;;;;;;7.57;4.50;;;;;;;;;;5070081;28;20041;-62
2022/04/06 07:25:49;;;;;;;5.83;3.80;;;;;;;;;;5073859;28;20158;-63
2022/04/06 07:28:16;;;;;;;6.77;3.80;;;;;;;;;;5073560;28;20029;-63
2022/04/06 07:30:43;;;;;;;6.20;3.50;;;;;;;;;;5073686;28;20513;-62
2022/04/06 07:33:12;;;;;;;6.30;3.63;;;;;;;;;;5073648;28;20036;-62
2022/04/06 07:35:39;;;;;;;5.33;3.20;;;;;;;;;;5073434;28;20033;-63
2022/04/06 07:38:06;;;;;;;7.40;3.73;;;;;;;;;;5067073;28;20025;-62
2022/04/06 07:40:35;;;;;;;10.57;4.57;;;;;;;;;;5079934;28;20035;-62
2022/04/06 07:43:02;;;;;;;7.23;4.37;;;;;;;;;;5077454;28;20090;-62
2022/04/06 07:45:28;;;;;;;6.50;3.20;;;;;;;;;;5073628;28;20020;-62
2022/04/06 07:47:55;;;;;;;6.93;3.27;;;;;;;;;;5092956;28;20110;-62
2022/04/06 07:50:22;;;;;;;5.40;3.43;;;;;;;;;;5093354;28;20106;-62
2022/04/06 07:52:49;;;;;;;7.53;4.17;;;;;;;;;;5084343;28;20045;-62
2022/04/06 07:55:16;;;;;;;8.57;3.90;;;;;;;;;;5072938;28;20031;-62
2022/04/06 07:57:43;;;;;;;7.10;3.97;;;;;;;;;;5073199;28;20029;-62
2022/04/06 08:00:10;;;;;;;5.07;3.10;;;;;;;;;;5068105;28;20380;-62
2022/04/06 08:02:37;;;;;;;9.07;3.70;;;;;;;;;;5067902;28;20055;-63
2022/04/06 08:05:07;;;;;;;8.53;4.20;;;;;;;;;;5067917;28;20375;-62
2022/04/06 08:07:39;;;;;;;6.40;3.33;;;;;;;;;;5067846;28;20025;-63
2022/04/06 08:10:08;;;;;;;9.33;3.93;;;;;;;;;;5088114;28;20019;-62
2022/04/06 08:12:35;;;;;;;4.70;3.43;;;;;;;;;;5093225;28;20087;-62
2022/04/06 08:15:03;;;;;;;4.87;3.43;;;;;;;;;;5092649;28;20391;-62
2022/04/06 08:17:33;;;;;;;7.73;3.97;;;;;;;;;;5092497;28;20024;-62
2022/04/06 08:19:59;;;;;;;7.00;3.73;;;;;;;;;;5092715;28;20024;-62
2022/04/06 08:22:26;;;;;;;8.10;3.73;;;;;;;;;;5087676;28;20467;-62
2022/04/06 08:24:53;;;;;;;7.27;4.37;;;;;;;;;;5085411;28;20089;-62
2022/04/06 08:27:20;;;;;;;7.93;4.20;;;;;;;;;;5085455;28;20034;-62
2022/04/06 08:29:46;;;;;;;7.87;3.70;;;;;;;;;;5087473;28;20028;-63
2022/04/06 08:32:14;;;;;;;6.53;3.60;;;;;;;;;;5084489;28;20039;-62
2022/04/06 08:34:41;;;;;;;5.53;3.70;;;;;;;;;;5072684;28;20036;-62
2022/04/06 08:37:08;;;;;;;7.73;3.97;;;;;;;;;;5077387;28;20039;-62
2022/04/06 08:39:35;;;;;;;8.40;3.90;;;;;;;;;;5092443;28;20035;-64
2022/04/06 08:42:02;;;;;;;8.03;3.43;;;;;;;;;;5092082;28;20502;-62
2022/04/06 08:44:28;;;;;;;6.93;4.23;;;;;;;;;;5071866;28;20040;-62
2022/04/06 08:46:56;;;;;;;8.43;4.20;;;;;;;;;;5076053;28;20024;-62
2022/04/06 08:49:24;;;;;;;8.03;3.87;;;;;;;;;;5087155;28;20360;-62
2022/04/06 08:51:52;;;;;;;8.83;4.43;;;;;;;;;;5085273;28;20051;-62
2022/04/06 08:54:18;;;;;;;8.83;4.27;;;;;;;;;;5084118;28;20037;-62
2022/04/06 08:56:45;;;;;;;6.13;4.13;;;;;;;;;;5081634;28;20387;-63
2022/04/06 08:59:13;;;;;;;14.90;4.30;;;;;;;;;;5092126;28;20016;-62
2022/04/06 09:01:39;;;;;;;10.00;4.70;;;;;;;;;;5092060;28;20466;-62
2022/04/06 09:04:06;;;;;;;7.20;4.30;;;;;;;;;;5091889;28;20028;-62
2022/04/06 09:06:43;;;;;;;7.23;3.77;;;;;;;;;;5087999;28;20031;-63
2022/04/06 09:09:10;;;;;;;7.07;3.67;;;;;;;;;;5046863;28;20029;-63
2022/04/06 09:11:43;;;;;;;8.50;3.90;;;;;;;;;;5057999;28;20051;-62
2022/04/06 09:14:10;;;;;;;8.73;4.40;;;;;;;;;;5046690;28;20151;-63
2022/04/06 09:16:37;;;;;;;7.97;4.27;;;;;;;;;;5060248;28;20039;-62
2022/04/06 09:19:13;;;;;;;8.63;4.20;;;;;;;;;;5072310;28;20056;-62
2022/04/06 09:21:44;;;;;;;7.17;3.90;;;;;;;;;;5088808;28;20081;-62
2022/04/06 09:24:14;;;;;;;9.37;4.47;;;;;;;;;;5092078;28;20024;-62
2022/04/06 09:26:41;;;;;;;9.60;4.70;;;;;;;;;;5081638;28;20029;-62
2022/04/06 09:29:07;;;;;;;8.40;4.50;;;;;;;;;;5067490;28;20050;-63
2022/04/06 09:31:43;;;;;;;9.50;4.70;;;;;;;;;;5066691;28;20056;-62
2022/04/06 09:34:12;;;;;;;8.20;4.03;;;;;;;;;;5066682;28;20024;-63
2022/04/06 09:36:39;;;;;;;8.13;4.43;;;;;;;;;;5075863;28;20035;-61
2022/04/06 09:39:07;;;;;;;9.27;4.70;;;;;;;;;;5090072;28;20023;-62
2022/04/06 09:41:34;;;;;;;6.57;4.10;;;;;;;;;;5080653;28;20032;-61
2022/04/06 09:47:38;;;;;;;8.33;4.33;;;;;;;;;;5071701;28;20028;-62
2022/04/06 09:50:08;;;;;;;10.10;4.20;;;;;;;;;;5090267;28;20532;-62
2022/04/06 09:52:37;;;;;;;7.70;4.70;;;;;;;;;;5086257;28;20140;-62
2022/04/06 09:55:07;;;;;;;7.07;4.00;;;;;;;;;;5086631;28;20085;-62
2022/04/06 09:57:45;;;;;;;5.67;3.60;;;;;;;;;;5086369;28;20032;-62
2022/04/06 10:00:16;;;;;;;6.27;3.63;;;;;;;;;;5075408;28;20051;-62
2022/04/06 10:02:43;;;;;;;7.83;4.43;;;;;;;;;;5073724;28;20379;-61
2022/04/06 10:05:12;;;;;;;8.13;4.37;;;;;;;;;;5075480;28;20020;-62
2022/04/06 10:07:40;;;;;;;8.70;5.00;;;;;;;;;;5075079;28;20039;-61
2022/04/06 10:10:06;;;;;;;7.77;4.00;;;;;;;;;;5075379;28;20025;-62
2022/04/06 10:12:34;;;;;;;8.03;4.63;;;;;;;;;;5074240;28;20040;-62
2022/04/06 10:15:01;;;;;;;7.03;4.40;;;;;;;;;;5069808;28;20089;-61
2022/04/06 10:17:31;;;;;;;7.87;4.43;;;;;;;;;;5070017;28;20032;-62
2022/04/06 10:20:21;;;;;;;6.93;4.10;;;;;;;;;;5069708;28;20056;-63
2022/04/06 10:22:59;;;;;;;8.10;5.20;;;;;;;;;;5061604;28;20091;-62
2022/04/06 10:25:33;;;;;;;9.77;4.63;;;;;;;;;;5075133;28;20596;-62
2022/04/06 10:28:04;;;;;;;11.27;5.88;;;;;;;;;;5090872;28;20052;-62
2022/04/06 10:30:31;;;;;;;6.63;4.80;;;;;;;;;;5078702;28;20021;-62
2022/04/06 10:32:58;;;;;;;7.23;4.17;;;;;;;;;;5074833;28;20029;-62
2022/04/06 10:35:27;;;;;;;10.67;4.70;;;;;;;;;;5071598;28;20051;-62
2022/04/06 10:38:13;;;;;;;9.23;5.23;;;;;;;;;;5069721;28;20031;-62
2022/04/06 10:40:46;;;;;;;7.57;4.83;;;;;;;;;;5081398;28;20046;-62
2022/04/06 10:43:31;;;;;;;8.90;4.23;;;;;;;;;;5089394;28;20494;-61
2022/04/06 10:45:58;;;;;;;9.52;4.40;;;;;;;;;;5093785;28;20475;-62
2022/04/06 10:48:25;;;;;;;10.53;5.20;;;;;;;;;;5080045;28;20021;-62
2022/04/06 10:50:53;;;;;;;9.63;5.73;;;;;;;;;;5074559;28;20095;-62
2022/04/06 10:53:20;;;;;;;9.00;5.40;;;;;;;;;;5074224;28;20041;-62
2022/04/06 10:56:03;;;;;;;9.00;5.20;;;;;;;;;;5094383;28;20028;-62
2022/04/06 10:58:49;;;;;;;7.90;4.40;;;;;;;;;;5071143;28;20036;-62
2022/04/06 11:01:17;;;;;;;13.23;4.63;;;;;;;;;;5085199;28;20069;-62
2022/04/06 11:04:03;;;;;;;8.93;4.40;;;;;;;;;;5089013;28;20031;-63
2022/04/06 11:06:45;;;;;;;7.77;4.13;;;;;;;;;;5088863;28;20115;-62
2022/04/06 11:12:15;;;;;;;11.20;5.50;;;;;;;;;;5093962;28;20043;-61
2022/04/06 11:14:43;;;;;;;8.90;4.57;;;;;;;;;;5094216;28;20036;-62
2022/04/06 11:17:27;;;;;;;10.87;5.17;;;;;;;;;;5094101;28;20487;-62
2022/04/06 11:19:54;;;;;;;8.48;5.10;;;;;;;;;;5091589;28;20016;-62
2022/04/06 11:22:24;;;;;;;14.17;4.73;;;;;;;;;;5088731;28;20016;-62
2022/04/06 11:24:51;;;;;;;8.93;4.67;;;;;;;;;;5088595;28;20431;-64
2022/04/06 11:27:30;;;;;;;11.17;4.40;;;;;;;;;;5088563;28;20374;-62
2022/04/06 11:30:00;;;;;;;8.70;4.87;;;;;;;;;;5075364;28;20025;-62
2022/04/06 11:32:27;;;;;;;9.47;5.57;;;;;;;;;;5081873;28;20132;-62
2022/04/06 11:35:00;;;;;;;9.93;5.10;;;;;;;;;;5094122;28;20055;-62
2022/04/06 11:37:26;;;;;;;8.87;5.37;;;;;;;;;;5088426;28;20020;-62
2022/04/06 11:39:57;;;;;;;8.60;5.50;;;;;;;;;;5073538;28;20032;-62
2022/04/06 11:42:24;;;;;;;8.77;4.47;;;;;;;;;;5077956;28;20031;-62
2022/04/06 11:44:51;;;;;;;9.30;4.10;;;;;;;;;;5088543;28;20020;-62
2022/04/06 11:47:27;;;;;;;10.67;5.27;;;;;;;;;;5084390;28;20023;-62
2022/04/06 11:49:53;;;;;;;12.13;5.67;;;;;;;;;;5068442;28;20056;-63
2022/04/06 11:52:20;;;;;;;8.97;5.40;;;;;;;;;;5071208;28;20020;-62
2022/04/06 11:54:51;;;;;;;10.80;6.03;;;;;;;;;;5073173;28;20038;-61
2022/04/06 11:57:18;;;;;;;12.10;7.30;;;;;;;;;;5073144;28;20070;-62
2022/04/06 11:59:54;;;;;;;11.50;6.07;;;;;;;;;;5073314;28;20028;-62
2022/04/06 12:02:21;;;;;;;8.77;5.60;;;;;;;;;;5073021;28;20029;-62
2022/04/06 12:04:59;;;;;;;8.60;5.57;;;;;;;;;;5077319;28;20024;-62
2022/04/06 12:07:26;;;;;;;20.00;6.60;;;;;;;;;;5067677;28;20103;-62
2022/04/06 12:09:53;;;;;;;11.60;6.43;;;;;;;;;;5067837;28;20020;-61
2022/04/06 12:12:19;;;;;;;14.30;5.70;;;;;;;;;;5067749;28;20847;-62
2022/04/06 12:14:47;;;;;;;11.73;5.60;;;;;;;;;;5071068;28;20536;-61
2022/04/06 12:17:14;;;;;;;9.63;5.20;;;;;;;;;;5091852;28;20036;-62
2022/04/06 12:19:41;;;;;;;19.37;5.97;;;;;;;;;;5093078;28;20544;-62
2022/04/06 12:22:08;;;;;;;12.90;5.50;;;;;;;;;;5092755;28;20032;-62
2022/04/06 12:24:52;;;;;;;11.03;5.23;;;;;;;;;;5092032;28;20028;-62
2022/04/06 12:27:29;;;;;;;10.93;5.85;;;;;;;;;;5088175;28;20471;-62
2022/04/06 12:30:11;;;;;;;11.30;4.10;;;;;;;;;;5087435;28;20077;-62
2022/04/06 12:32:44;;;;;;;8.97;4.83;;;;;;;;;;5086894;28;20455;-61
2022/04/06 12:35:21;;;;;;;16.73;6.30;;;;;;;;;;5075367;28;20040;-62
2022/04/06 12:37:48;;;;;;;12.77;6.90;;;;;;;;;;5080743;28;20027;-62
2022/04/06 12:40:25;;;;;;;9.27;6.27;;;;;;;;;;5092437;28;20475;-62
2022/04/06 12:42:51;;;;;;;14.73;6.57;;;;;;;;;;5092088;28;20024;-62
2022/04/06 12:45:21;;;;;;;8.73;5.20;;;;;;;;;;5075162;28;20017;-62
2022/04/06 12:47:47;;;;;;;13.67;5.67;;;;;;;;;;5076030;28;20098;-61
2022/04/06 12:50:20;;;;;;;15.77;5.67;;;;;;;;;;5087502;28;21061;-61
2022/04/06 12:53:02;;;;;;;13.07;5.53;;;;;;;;;;5086984;28;20055;-61
2022/04/06 12:55:29;;;;;;;13.33;5.17;;;;;;;;;;5087463;28;20020;-62
2022/04/06 12:58:13;;;;;;;9.40;5.47;;;;;;;;;;5087464;28;20676;-62
2022/04/06 13:00:40;;;;;;;14.07;6.65;;;;;;;;;;5092212;28;20031;-61
2022/04/06 13:03:08;;;;;;;12.80;6.17;;;;;;;;;;5092268;28;20032;-62
2022/04/06 13:05:35;;;;;;;13.57;5.60;;;;;;;;;;5091832;28;20031;-62
2022/04/06 13:08:02;;;;;;;13.50;6.00;;;;;;;;;;5077441;28;20031;-62
2022/04/06 13:10:30;;;;;;;9.10;5.37;;;;;;;;;;5070237;28;20055;-63
2022/04/06 13:12:57;;;;;;;12.97;6.47;;;;;;;;;;5077153;28;20044;-62
2022/04/06 13:15:24;;;;;;;9.70;6.07;;;;;;;;;;5086643;28;20028;-62
2022/04/06 13:17:51;;;;;;;24.03;6.83;;;;;;;;;;5087301;28;20028;-62
2022/04/06 13:20:19;;;;;;;17.00;7.40;;;;;;;;;;5087591;28;20020;-62
2022/04/06 13:22:46;;;;;;;16.47;6.93;;;;;;;;;;5091768;28;20467;-62
2022/04/06 13:25:14;;;;;;;15.93;7.37;;;;;;;;;;5091950;28;20417;-62
2022/04/06 13:27:42;;;;;;;15.83;7.07;;;;;;;;;;5091756;28;20039;-62
2022/04/06 13:30:10;;;;;;;20.87;7.20;;;;;;;;;;5090505;28;20180;-62
2022/04/06 13:32:37;;;;;;;13.97;6.77;;;;;;;;;;5090035;28;20020;-62
2022/04/06 13:35:05;;;;;;;17.37;6.63;;;;;;;;;;5081922;28;20052;-62
2022/04/06 13:37:32;;;;;;;9.67;6.00;;;;;;;;;;5071204;28;20027;-62
2022/04/06 13:39:58;;;;;;;19.27;7.43;;;;;;;;;;5070639;28;20038;-62
2022/04/06 13:42:25;;;;;;;22.57;7.83;;;;;;;;;;5071309;28;20031;-62
2022/04/06 13:44:52;;;;;;;18.03;6.87;;;;;;;;;;5076644;28;20016;-63
2022/04/06 13:47:19;;;;;;;12.80;6.77;;;;;;;;;;5092212;28;20436;-63
2022/04/06 13:49:46;;;;;;;11.13;6.70;;;;;;;;;;5095546;28;20016;-62
2022/04/06 13:52:13;;;;;;;16.07;6.77;;;;;;;;;;5095650;28;20110;-63
2022/04/06 13:54:40;;;;;;;15.70;5.83;;;;;;;;;;5094147;28;20043;-62
2022/04/06 13:57:07;;;;;;;18.07;7.27;;;;;;;;;;5071235;28;20479;-63
2022/04/06 13:59:33;;;;;;;19.23;7.80;;;;;;;;;;5087490;28;20056;-63
2022/04/06 14:02:00;;;;;;;19.63;8.77;;;;;;;;;;5088424;28;20024;-63
2022/04/06 14:04:27;;;;;;;14.77;7.50;;;;;;;;;;5090615;28;20085;-63
2022/04/06 14:06:54;;;;;;;19.87;8.07;;;;;;;;;;5095227;28;20066;-63
2022/04/06 14:09:22;;;;;;;20.77;8.40;;;;;;;;;;5080935;28;20352;-64
2022/04/06 14:11:49;;;;;;;17.93;7.80;;;;;;;;;;5075156;28;20029;-64
2022/04/06 14:14:17;;;;;;;20.43;9.50;;;;;;;;;;5092737;28;20059;-64
2022/04/06 14:16:44;;;;;;;18.93;9.10;;;;;;;;;;5081092;28;20063;-63
2022/04/06 14:19:12;;;;;;;26.17;10.20;;;;;;;;;;5069501;28;20089;-65
2022/04/06 14:21:38;;;;;;;25.67;10.83;;;;;;;;;;5069623;28;20028;-63
2022/04/06 14:24:06;;;;;;;22.60;8.40;;;;;;;;;;5069765;28;20024;-64
2022/04/06 14:26:33;;;;;;;15.83;8.33;;;;;;;;;;5069172;28;20032;-64
2022/04/06 14:29:00;;;;;;;17.40;8.40;;;;;;;;;;5084618;28;20405;-64
2022/04/06 14:31:27;;;;;;;13.30;8.00;;;;;;;;;;5094796;28;20108;-64
2022/04/06 14:33:53;;;;;;;18.90;8.47;;;;;;;;;;5094660;28;20036;-64
2022/04/06 14:36:20;;;;;;;14.40;7.43;;;;;;;;;;5094259;28;20074;-64
2022/04/06 14:38:47;;;;;;;32.13;9.00;;;;;;;;;;5090418;28;20024;-64
2022/04/06 14:41:14;;;;;;;17.07;8.27;;;;;;;;;;5069309;28;20040;-63
2022/04/06 14:43:42;;;;;;;17.33;7.67;;;;;;;;;;5088420;28;20455;-65
2022/04/06 14:46:09;;;;;;;18.67;8.53;;;;;;;;;;5069550;28;20356;-65
2022/04/06 14:48:35;;;;;;;12.90;7.23;;;;;;;;;;5084388;28;20538;-64
2022/04/06 14:51:02;;;;;;;13.83;6.97;;;;;;;;;;5094212;28;20107;-64